Time;durP1;ratioP1;P1;durP2;ratioP2;P2;SDS_P1;SDS_P2;PMS_P1;PMS_P2;Temp;Humidity;BMP_temperature;BMP_pressure;BME280_temperature;BME280_humidity;BME280_pressure;Samples;Min_cycle;Max_cycle;Signal;HPM_P1;HPM_P2
2023/07/05 00:01:54;;;;;;;;;;;17.80;91.20;;;;;;5053548;28;19913;-82
2023/07/05 00:04:19;;;;;;;;;;;17.90;91.20;;;;;;5062690;28;19913;-85
2023/07/05 00:06:45;;;;;;;;;;;18.00;91.20;;;;;;5062505;28;19913;-81
2023/07/05 00:09:11;;;;;;;;;;;18.10;91.10;;;;;;5063708;28;19921;-83
2023/07/05 00:11:37;;;;;;;;;;;18.20;91.20;;;;;;5054328;28;20629;-82
2023/07/05 00:14:02;;;;;;;;;;;18.30;91.00;;;;;;5062779;28;20453;-82
2023/07/05 00:16:28;;;;;;;;;;;18.40;90.80;;;;;;5062832;28;19993;-83
2023/07/05 00:18:53;;;;;;;;;;;18.50;90.40;;;;;;5058949;28;19924;-85
2023/07/05 00:21:19;;;;;;;;;;;18.60;90.70;;;;;;5059460;28;19908;-86
2023/07/05 00:23:46;;;;;;;;;;;18.60;90.40;;;;;;5058925;28;19913;-85
2023/07/05 00:26:12;;;;;;;;;;;18.60;90.40;;;;;;5056199;28;19912;-85
2023/07/05 00:28:37;;;;;;;;;;;18.70;90.40;;;;;;5053641;28;20674;-86
2023/07/05 00:31:03;;;;;;;;;;;18.70;90.30;;;;;;5053413;28;19925;-82
2023/07/05 00:33:31;;;;;;;;;;;18.60;90.30;;;;;;5057071;28;20379;-85
2023/07/05 00:35:57;;;;;;;;;;;18.60;90.50;;;;;;5038505;28;19920;-81
2023/07/05 00:38:22;;;;;;;;;;;18.50;90.80;;;;;;5062376;28;20406;-84
2023/07/05 00:40:48;;;;;;;;;;;18.50;90.90;;;;;;5063301;28;19959;-85
2023/07/05 00:43:15;;;;;;;;;;;18.60;91.10;;;;;;5072704;28;19948;-86
2023/07/05 00:45:46;;;;;;;;;;;18.40;91.30;;;;;;5043365;28;19935;-82
2023/07/05 00:48:16;;;;;;;;;;;18.40;91.40;;;;;;5060063;28;19917;-87
2023/07/05 00:50:45;;;;;;;;;;;18.50;91.30;;;;;;5050951;28;20338;-83
2023/07/05 00:53:11;;;;;;;;;;;18.50;91.10;;;;;;5053763;28;19917;-84
2023/07/05 00:55:39;;;;;;;;;;;18.40;91.50;;;;;;5059045;28;19931;-80
2023/07/05 00:58:04;;;;;;;;;;;18.50;91.60;;;;;;5052258;28;20018;-85
2023/07/05 01:00:30;;;;;;;;;;;18.40;91.70;;;;;;5061301;28;20509;-85
2023/07/05 01:02:58;;;;;;;;;;;18.40;91.50;;;;;;5062794;28;20006;-84
2023/07/05 01:05:24;;;;;;;;;;;18.40;91.60;;;;;;5061867;28;20050;-86
2023/07/05 01:07:50;;;;;;;;;;;18.50;91.60;;;;;;5062841;28;20614;-86
2023/07/05 01:10:16;;;;;;;;;;;18.50;91.40;;;;;;5043624;28;19920;-84
2023/07/05 01:12:51;;;;;;;;;;;18.50;91.60;;;;;;5062751;28;19958;-85
2023/07/05 01:15:40;;;;;;;;;;;18.50;91.60;;;;;;5057917;28;19970;-82
2023/07/05 01:18:11;;;;;;;;;;;18.40;91.50;;;;;;5056694;28;19963;-85
2023/07/05 01:20:43;;;;;;;;;;;18.40;91.50;;;;;;5062208;28;19916;-84
2023/07/05 01:23:24;;;;;;;;;;;18.50;91.50;;;;;;5043425;28;20407;-84
2023/07/05 01:26:10;;;;;;;;;;;18.50;91.50;;;;;;5056512;28;20406;-87
2023/07/05 01:28:45;;;;;;;;;;;18.50;91.70;;;;;;5060548;28;20447;-85
2023/07/05 01:31:29;;;;;;;;;;;18.30;92.30;;;;;;5061160;28;19928;-85
2023/07/05 01:33:58;;;;;;;;;;;18.30;92.50;;;;;;5071460;28;20003;-85
2023/07/05 01:36:25;;;;;;;;;;;18.40;92.30;;;;;;5061316;28;19920;-84
2023/07/05 01:38:51;;;;;;;;;;;18.40;92.10;;;;;;5062238;28;19938;-80
2023/07/05 01:41:17;;;;;;;;;;;18.40;92.30;;;;;;5056453;28;20386;-80
2023/07/05 01:43:43;;;;;;;;;;;18.30;92.40;;;;;;5055144;28;19920;-82
2023/07/05 01:46:08;;;;;;;;;;;18.20;92.80;;;;;;5061023;28;19912;-82
2023/07/05 01:48:37;;;;;;;;;;;18.30;93.00;;;;;;5054742;28;19916;-81
2023/07/05 01:51:09;;;;;;;;;;;18.30;92.90;;;;;;5055132;28;19997;-82
2023/07/05 01:53:37;;;;;;;;;;;18.30;93.00;;;;;;5056968;28;19913;-83
2023/07/05 01:56:03;;;;;;;;;;;18.20;93.20;;;;;;5062159;28;20632;-82
2023/07/05 01:58:30;;;;;;;;;;;18.10;93.80;;;;;;5051053;28;19983;-83
2023/07/05 02:00:58;;;;;;;;;;;18.00;95.10;;;;;;5057171;28;19974;-85
2023/07/05 02:03:25;;;;;;;;;;;17.90;95.80;;;;;;5057347;28;19913;-86
2023/07/05 02:05:50;;;;;;;;;;;17.60;97.30;;;;;;5057377;28;19916;-84
2023/07/05 02:08:17;;;;;;;;;;;17.50;99.90;;;;;;5061332;28;19965;-86
2023/07/05 02:10:43;;;;;;;;;;;17.40;99.90;;;;;;5065034;28;20007;-83
2023/07/05 02:13:10;;;;;;;;;;;17.10;99.90;;;;;;5065481;28;19913;-85
2023/07/05 02:15:38;;;;;;;;;;;17.10;99.90;;;;;;5064615;28;19958;-85
2023/07/05 02:18:04;;;;;;;;;;;17.10;99.90;;;;;;5064995;28;19930;-86
2023/07/05 02:20:30;;;;;;;;;;;17.30;99.90;;;;;;5065121;28;19920;-86
2023/07/05 02:22:56;;;;;;;;;;;17.20;99.90;;;;;;5065119;28;19913;-84
2023/07/05 02:25:22;;;;;;;;;;;17.20;99.90;;;;;;5065579;28;19935;-86
2023/07/05 02:27:47;;;;;;;;;;;17.30;99.90;;;;;;5065481;28;19912;-84
2023/07/05 02:30:13;;;;;;;;;;;17.30;99.90;;;;;;5064608;28;19929;-84
2023/07/05 02:32:39;;;;;;;;;;;17.30;99.30;;;;;;5065411;28;19913;-85
2023/07/05 02:35:05;;;;;;;;;;;17.20;99.50;;;;;;5064730;28;20005;-86
2023/07/05 02:37:31;;;;;;;;;;;17.20;99.30;;;;;;5064602;28;20044;-82
2023/07/05 02:39:56;;;;;;;;;;;17.40;99.80;;;;;;5064955;28;19946;-84
2023/07/05 02:42:22;;;;;;;;;;;17.20;99.60;;;;;;5064899;28;19913;-86
2023/07/05 02:44:48;;;;;;;;;;;17.40;99.90;;;;;;5071429;28;20490;-85
2023/07/05 02:47:14;;;;;;;;;;;17.40;99.10;;;;;;5069021;28;20283;-86
2023/07/05 02:49:39;;;;;;;;;;;17.40;99.10;;;;;;5055840;28;19959;-87
2023/07/05 02:52:05;;;;;;;;;;;17.40;99.50;;;;;;5064949;28;19912;-85
2023/07/05 02:54:31;;;;;;;;;;;17.50;99.00;;;;;;5064184;28;19919;-83
2023/07/05 02:56:56;;;;;;;;;;;17.50;99.10;;;;;;5064215;28;19958;-84
2023/07/05 02:59:22;;;;;;;;;;;17.50;98.70;;;;;;5063413;28;19916;-85
2023/07/05 03:01:47;;;;;;;;;;;17.40;98.80;;;;;;5065277;28;19989;-84
2023/07/05 03:04:14;;;;;;;;;;;17.30;99.40;;;;;;5055781;28;19928;-82
2023/07/05 03:06:39;;;;;;;;;;;17.20;99.60;;;;;;5064149;28;19912;-86
2023/07/05 03:09:05;;;;;;;;;;;17.20;99.40;;;;;;5063420;28;19978;-86
2023/07/05 03:11:30;;;;;;;;;;;17.10;99.60;;;;;;5064057;28;20417;-81
2023/07/05 03:13:56;;;;;;;;;;;17.10;99.90;;;;;;5064197;28;19951;-85
2023/07/05 03:16:21;;;;;;;;;;;17.00;99.90;;;;;;5063782;28;19978;-83
2023/07/05 03:18:47;;;;;;;;;;;17.10;99.90;;;;;;5056433;28;19922;-81
2023/07/05 03:21:13;;;;;;;;;;;16.90;99.90;;;;;;5063777;28;19920;-85
2023/07/05 03:23:38;;;;;;;;;;;16.80;99.90;;;;;;5045608;28;19952;-82
2023/07/05 03:26:07;;;;;;;;;;;16.90;99.90;;;;;;5063389;28;20073;-87
2023/07/05 03:28:33;;;;;;;;;;;16.80;99.90;;;;;;5063786;28;19919;-82
2023/07/05 03:31:00;;;;;;;;;;;16.70;99.90;;;;;;5063523;28;19924;-86
2023/07/05 03:33:26;;;;;;;;;;;16.50;99.90;;;;;;5063994;28;20703;-83
2023/07/05 03:35:55;;;;;;;;;;;16.50;99.90;;;;;;5063037;28;19959;-87
2023/07/05 03:38:20;;;;;;;;;;;16.50;99.90;;;;;;5063802;28;19924;-85
2023/07/05 03:40:46;;;;;;;;;;;16.50;99.90;;;;;;5063517;28;19912;-85
2023/07/05 03:43:11;;;;;;;;;;;16.40;99.90;;;;;;5064023;28;19943;-83
2023/07/05 03:45:37;;;;;;;;;;;16.30;99.90;;;;;;5063338;28;19981;-83
2023/07/05 03:48:03;;;;;;;;;;;16.20;99.90;;;;;;5060108;28;19960;-87
2023/07/05 03:50:28;;;;;;;;;;;16.20;99.90;;;;;;5059420;28;20368;-81
2023/07/05 03:52:54;;;;;;;;;;;16.10;99.90;;;;;;5062943;28;19982;-84
2023/07/05 03:55:19;;;;;;;;;;;16.00;99.90;;;;;;5052901;28;19912;-85
2023/07/05 03:57:45;;;;;;;;;;;16.00;99.90;;;;;;5047441;28;20703;-88
2023/07/05 04:00:11;;;;;;;;;;;16.00;99.90;;;;;;5058913;28;19923;-83
2023/07/05 04:02:36;;;;;;;;;;;15.90;99.90;;;;;;5063991;28;20023;-84
2023/07/05 04:05:02;;;;;;;;;;;15.90;99.90;;;;;;5063516;28;20370;-84
2023/07/05 04:07:29;;;;;;;;;;;15.80;99.90;;;;;;5051377;28;20433;-86
2023/07/05 04:09:54;;;;;;;;;;;15.80;99.90;;;;;;5051691;28;19919;-86
2023/07/05 04:12:20;;;;;;;;;;;15.80;99.90;;;;;;5051840;28;19912;-89
2023/07/05 04:14:45;;;;;;;;;;;15.80;99.90;;;;;;5052447;28;19917;-85
2023/07/05 04:17:11;;;;;;;;;;;15.80;99.90;;;;;;5049745;28;19920;-83
2023/07/05 04:19:37;;;;;;;;;;;16.00;99.90;;;;;;5062558;28;19916;-84
2023/07/05 04:22:02;;;;;;;;;;;16.10;99.90;;;;;;5054495;28;19956;-81
2023/07/05 04:24:28;;;;;;;;;;;16.10;99.90;;;;;;5058498;28;19912;-85
2023/07/05 04:26:53;;;;;;;;;;;16.20;99.90;;;;;;5061992;28;20424;-81
2023/07/05 04:29:19;;;;;;;;;;;16.20;99.90;;;;;;5052779;28;19913;-85
2023/07/05 04:31:44;;;;;;;;;;;16.30;99.90;;;;;;5039425;28;20079;-85
2023/07/05 04:34:10;;;;;;;;;;;16.40;99.90;;;;;;5059969;28;19959;-86
2023/07/05 04:36:36;;;;;;;;;;;16.20;99.90;;;;;;5062721;28;20447;-82
2023/07/05 04:39:01;;;;;;;;;;;16.10;99.90;;;;;;5044190;28;19956;-83
2023/07/05 04:41:27;;;;;;;;;;;16.00;99.90;;;;;;5050631;28;19916;-85
2023/07/05 04:43:53;;;;;;;;;;;16.00;99.90;;;;;;5044529;28;19919;-81
2023/07/05 04:46:19;;;;;;;;;;;16.10;99.90;;;;;;5058281;28;19912;-83
2023/07/05 04:48:44;;;;;;;;;;;16.30;99.90;;;;;;5037271;28;19917;-83
2023/07/05 04:51:10;;;;;;;;;;;16.50;99.90;;;;;;5061965;28;20419;-85
2023/07/05 04:53:36;;;;;;;;;;;16.50;99.90;;;;;;5051547;28;19956;-83
2023/07/05 04:56:01;;;;;;;;;;;16.50;99.90;;;;;;5061811;28;19917;-81
2023/07/05 04:58:27;;;;;;;;;;;16.50;99.90;;;;;;5049580;28;19929;-84
2023/07/05 05:00:59;;;;;;;;;;;16.50;99.90;;;;;;5048699;28;19920;-85
2023/07/05 05:03:24;;;;;;;;;;;16.60;99.90;;;;;;5030336;28;19912;-83
2023/07/05 05:05:54;;;;;;;;;;;16.50;99.90;;;;;;5048809;28;19942;-86
2023/07/05 05:08:20;;;;;;;;;;;16.60;99.90;;;;;;5058113;28;19916;-82
2023/07/05 05:10:49;;;;;;;;;;;16.70;99.90;;;;;;5057774;28;20011;-84
2023/07/05 05:13:15;;;;;;;;;;;16.80;99.90;;;;;;5050571;28;19970;-82
2023/07/05 05:15:40;;;;;;;;;;;16.80;99.90;;;;;;5061291;28;19916;-84
2023/07/05 05:18:07;;;;;;;;;;;16.70;99.90;;;;;;5054793;28;20025;-82
2023/07/05 05:20:33;;;;;;;;;;;16.80;99.90;;;;;;5060598;28;19917;-81
2023/07/05 05:22:58;;;;;;;;;;;17.10;99.20;;;;;;5051119;28;19912;-81
2023/07/05 05:25:25;;;;;;;;;;;17.10;98.80;;;;;;5035815;28;19927;-82
2023/07/05 05:27:50;;;;;;;;;;;17.10;98.60;;;;;;5052424;28;19913;-82
2023/07/05 05:30:16;;;;;;;;;;;17.00;98.70;;;;;;5055522;28;19931;-81
2023/07/05 05:32:41;;;;;;;;;;;17.40;98.30;;;;;;5055709;28;19912;-82
2023/07/05 05:35:07;;;;;;;;;;;18.70;95.90;;;;;;5052529;28;19928;-82
2023/07/05 05:37:33;;;;;;;;;;;22.10;87.60;;;;;;5046594;28;19927;-80
2023/07/05 05:39:59;;;;;;;;;;;24.20;77.50;;;;;;5043269;28;19970;-82
2023/07/05 05:42:25;;;;;;;;;;;24.80;73.10;;;;;;5048933;28;19966;-84
2023/07/05 05:44:50;;;;;;;;;;;22.10;79.70;;;;;;5052449;28;19917;-83
2023/07/05 05:47:16;;;;;;;;;;;20.40;86.40;;;;;;5049079;28;20339;-82
2023/07/05 05:49:42;;;;;;;;;;;19.50;90.40;;;;;;5057170;28;19981;-81
2023/07/05 05:52:07;;;;;;;;;;;19.20;91.60;;;;;;5064715;28;20605;-81
2023/07/05 05:54:33;;;;;;;;;;;19.20;91.40;;;;;;5065803;28;19913;-81
2023/07/05 05:56:59;;;;;;;;;;;19.20;91.70;;;;;;5064214;28;20005;-82
2023/07/05 05:59:25;;;;;;;;;;;19.30;91.50;;;;;;5065248;28;20273;-80
2023/07/05 06:01:51;;;;;;;;;;;19.30;91.20;;;;;;5076798;28;20276;-82
2023/07/05 06:04:16;;;;;;;;;;;19.20;91.20;;;;;;5064849;28;19919;-82
2023/07/05 06:06:42;;;;;;;;;;;19.10;91.70;;;;;;5065005;28;19920;-81
2023/07/05 06:09:08;;;;;;;;;;;18.90;92.40;;;;;;5063755;28;19916;-81
2023/07/05 06:11:33;;;;;;;;;;;19.20;92.40;;;;;;5064703;28;19920;-79
2023/07/05 06:13:59;;;;;;;;;;;20.40;90.10;;;;;;5064756;28;19912;-82
2023/07/05 06:16:24;;;;;;;;;;;20.40;88.40;;;;;;5064701;28;19920;-82
2023/07/05 06:18:50;;;;;;;;;;;20.50;87.80;;;;;;5064000;28;19920;-82
2023/07/05 06:21:16;;;;;;;;;;;20.30;88.40;;;;;;5065272;28;19913;-82
2023/07/05 06:23:41;;;;;;;;;;;20.10;88.90;;;;;;5061813;28;20409;-80
2023/07/05 06:26:08;;;;;;;;;;;20.10;89.20;;;;;;5061736;28;20758;-82
2023/07/05 06:28:33;;;;;;;;;;;20.00;88.40;;;;;;5060008;28;19963;-80
2023/07/05 06:31:06;;;;;;;;;;;20.00;88.70;;;;;;5061922;28;19968;-81
2023/07/05 06:33:32;;;;;;;;;;;20.00;89.10;;;;;;5069376;28;19913;-82
2023/07/05 06:36:00;;;;;;;;;;;20.20;89.00;;;;;;5071762;28;20480;-81
2023/07/05 06:38:26;;;;;;;;;;;19.90;88.80;;;;;;5055297;28;19920;-81
2023/07/05 06:40:52;;;;;;;;;;;20.00;89.40;;;;;;5053410;28;19923;-82
2023/07/05 06:43:17;;;;;;;;;;;19.80;89.30;;;;;;5061946;28;20398;-82
2023/07/05 06:45:50;;;;;;;;;;;19.90;90.10;;;;;;5061243;28;19997;-81
2023/07/05 06:48:15;;;;;;;;;;;20.10;88.20;;;;;;5063371;28;19923;-81
2023/07/05 06:50:41;;;;;;;;;;;20.00;88.10;;;;;;5054940;28;20382;-80
2023/07/05 06:53:06;;;;;;;;;;;19.90;88.00;;;;;;5061876;28;19982;-81
2023/07/05 06:55:32;;;;;;;;;;;19.80;88.80;;;;;;5065664;28;19974;-82
2023/07/05 06:57:58;;;;;;;;;;;19.70;88.30;;;;;;5063606;28;19924;-83
2023/07/05 07:00:23;;;;;;;;;;;19.60;89.70;;;;;;5071977;28;20441;-80
2023/07/05 07:02:49;;;;;;;;;;;19.40;90.20;;;;;;5062094;28;20007;-82
2023/07/05 07:05:17;;;;;;;;;;;19.30;91.00;;;;;;5060455;28;19992;-80
2023/07/05 07:10:47;;;;;;;;;;;19.70;90.00;;;;;;5061909;28;19919;-82
2023/07/05 07:13:13;;;;;;;;;;;20.00;88.20;;;;;;5063784;28;19913;-83
2023/07/05 07:15:38;;;;;;;;;;;20.00;87.90;;;;;;5063419;28;19923;-83
2023/07/05 07:18:04;;;;;;;;;;;19.90;88.60;;;;;;5069830;28;19931;-83
2023/07/05 07:20:30;;;;;;;;;;;19.90;87.90;;;;;;5063251;28;19916;-82
2023/07/05 07:22:55;;;;;;;;;;;20.00;86.80;;;;;;5063862;28;20015;-80
2023/07/05 07:25:21;;;;;;;;;;;20.10;86.50;;;;;;5063953;28;19919;-83
2023/07/05 07:27:46;;;;;;;;;;;19.70;88.20;;;;;;5064337;28;19912;-82
2023/07/05 07:30:13;;;;;;;;;;;19.10;90.10;;;;;;5061978;28;20069;-82
2023/07/05 07:32:38;;;;;;;;;;;19.20;90.20;;;;;;5061147;28;20015;-81
2023/07/05 07:35:04;;;;;;;;;;;19.40;89.00;;;;;;5063950;28;20478;-83
2023/07/05 07:37:33;;;;;;;;;;;19.70;88.50;;;;;;5056822;28;19966;-82
2023/07/05 07:39:58;;;;;;;;;;;19.70;88.60;;;;;;5063622;28;19998;-81
2023/07/05 07:42:24;;;;;;;;;;;20.50;85.60;;;;;;5051299;28;20546;-82
2023/07/05 07:44:52;;;;;;;;;;;20.60;85.50;;;;;;5063424;28;19913;-82
2023/07/05 07:47:18;;;;;;;;;;;21.00;83.50;;;;;;5062708;28;19920;-81
2023/07/05 07:49:43;;;;;;;;;;;21.30;82.10;;;;;;5052489;28;19917;-80
2023/07/05 07:52:11;;;;;;;;;;;21.40;82.10;;;;;;5063237;28;19947;-81
2023/07/05 07:54:38;;;;;;;;;;;20.80;82.30;;;;;;5053289;28;19916;-83
2023/07/05 07:57:05;;;;;;;;;;;20.90;82.30;;;;;;5064416;28;19989;-83
2023/07/05 07:59:30;;;;;;;;;;;21.40;80.70;;;;;;5062797;28;19924;-81
2023/07/05 08:01:56;;;;;;;;;;;21.70;79.40;;;;;;5072223;28;19916;-80
2023/07/05 08:04:21;;;;;;;;;;;22.00;79.90;;;;;;5044148;28;19912;-82
2023/07/05 08:06:49;;;;;;;;;;;22.50;77.20;;;;;;5055228;28;19923;-82
2023/07/05 08:09:20;;;;;;;;;;;23.30;74.90;;;;;;5062472;28;20003;-83
2023/07/05 08:11:45;;;;;;;;;;;23.60;72.70;;;;;;5065046;28;20023;-82
2023/07/05 08:14:13;;;;;;;;;;;24.10;71.70;;;;;;5062311;28;19916;-83
2023/07/05 08:16:40;;;;;;;;;;;25.10;69.40;;;;;;5062861;28;19932;-82
2023/07/05 08:19:05;;;;;;;;;;;24.60;69.20;;;;;;5071878;28;19921;-80
2023/07/05 08:21:31;;;;;;;;;;;23.10;72.00;;;;;;5072460;28;20277;-83
2023/07/05 08:23:57;;;;;;;;;;;23.10;73.30;;;;;;5062876;28;19912;-82
2023/07/05 08:26:22;;;;;;;;;;;22.70;73.10;;;;;;5062999;28;19912;-82
2023/07/05 08:28:48;;;;;;;;;;;22.90;73.10;;;;;;5044852;28;19919;-82
2023/07/05 08:31:14;;;;;;;;;;;23.60;73.00;;;;;;5058540;28;19963;-83
2023/07/05 08:33:40;;;;;;;;;;;24.20;70.00;;;;;;5058282;28;19920;-82
2023/07/05 08:36:09;;;;;;;;;;;24.20;69.30;;;;;;5074753;28;19916;-82
2023/07/05 08:38:37;;;;;;;;;;;24.00;68.80;;;;;;5065787;28;19960;-83
2023/07/05 08:41:07;;;;;;;;;;;27.70;64.40;;;;;;5062348;28;19912;-82
2023/07/05 08:43:36;;;;;;;;;;;27.70;61.30;;;;;;5062957;28;19913;-83
2023/07/05 08:46:04;;;;;;;;;;;29.50;57.00;;;;;;5069710;28;20423;-83
2023/07/05 08:48:30;;;;;;;;;;;29.50;56.30;;;;;;5047974;28;19917;-83
2023/07/05 08:50:56;;;;;;;;;;;28.50;57.20;;;;;;5061985;28;20031;-82
2023/07/05 08:53:23;;;;;;;;;;;27.00;59.60;;;;;;5062816;28;20394;-81
2023/07/05 08:55:52;;;;;;;;;;;25.90;62.00;;;;;;5063969;28;19920;-82
2023/07/05 08:58:25;;;;;;;;;;;24.50;65.00;;;;;;5062302;28;20023;-81
2023/07/05 09:00:54;;;;;;;;;;;23.70;69.00;;;;;;5062427;28;19958;-82
2023/07/05 09:03:22;;;;;;;;;;;23.50;69.80;;;;;;5044403;28;19913;-80
2023/07/05 09:05:47;;;;;;;;;;;23.80;69.50;;;;;;5058345;28;20371;-81
2023/07/05 09:08:50;;;;;;;;;;;24.60;65.90;;;;;;5058024;28;19958;-83
2023/07/05 09:11:28;;;;;;;;;;;24.50;65.20;;;;;;4992846;28;19924;-82
2023/07/05 09:14:01;;;;;;;;;;;24.00;66.10;;;;;;5053471;28;19920;-84
2023/07/05 09:16:43;;;;;;;;;;;24.30;67.60;;;;;;5068256;28;19916;-82
2023/07/05 09:19:16;;;;;;;;;;;24.80;64.20;;;;;;5066834;28;19917;-84
2023/07/05 09:21:42;;;;;;;;;;;24.20;68.40;;;;;;5066504;28;19958;-82
2023/07/05 09:24:15;;;;;;;;;;;24.30;67.30;;;;;;5066745;28;19923;-81
2023/07/05 09:26:49;;;;;;;;;;;24.20;66.60;;;;;;5054877;28;19982;-82
2023/07/05 09:29:30;;;;;;;;;;;24.90;67.00;;;;;;5048868;28;19916;-81
2023/07/05 09:31:56;;;;;;;;;;;26.40;64.90;;;;;;5047938;28;20382;-79
2023/07/05 09:34:24;;;;;;;;;;;28.80;59.80;;;;;;5067222;28;19927;-82
2023/07/05 09:36:51;;;;;;;;;;;28.40;58.90;;;;;;5066444;28;19924;-83
2023/07/05 09:39:30;;;;;;;;;;;29.80;57.70;;;;;;5048086;28;19916;-80
2023/07/05 09:41:58;;;;;;;;;;;32.00;55.30;;;;;;5065978;28;19913;-83
2023/07/05 09:44:24;;;;;;;;;;;33.50;51.40;;;;;;5065964;28;20642;-84
2023/07/05 09:46:49;;;;;;;;;;;31.20;52.00;;;;;;5047692;28;19919;-83
2023/07/05 09:49:16;;;;;;;;;;;30.80;53.40;;;;;;5056236;28;19917;-82
2023/07/05 09:51:44;;;;;;;;;;;33.40;49.10;;;;;;5065733;28;19916;-81
2023/07/05 09:54:28;;;;;;;;;;;35.60;46.00;;;;;;5065844;28;19920;-83
2023/07/05 09:57:14;;;;;;;;;;;29.70;51.60;;;;;;5066872;28;19917;-84
2023/07/05 09:59:39;;;;;;;;;;;27.20;57.90;;;;;;5056668;28;19987;-83
2023/07/05 10:02:12;;;;;;;;;;;26.30;58.80;;;;;;5065822;28;20003;-83
2023/07/05 10:04:46;;;;;;;;;;;25.90;59.70;;;;;;5057945;28;19924;-84
2023/07/05 10:07:14;;;;;;;;;;;27.30;59.50;;;;;;5065501;28;20534;-83
2023/07/05 10:09:52;;;;;;;;;;;27.00;56.30;;;;;;5065553;28;19916;-84
2023/07/05 10:12:19;;;;;;;;;;;30.00;55.90;;;;;;5064849;28;20052;-83
2023/07/05 10:14:52;;;;;;;;;;;31.60;50.60;;;;;;5065656;28;19913;-83
2023/07/05 10:17:18;;;;;;;;;;;32.00;48.80;;;;;;5065277;28;20835;-84
2023/07/05 10:19:51;;;;;;;;;;;34.70;49.40;;;;;;5065476;28;19916;-83
2023/07/05 10:22:30;;;;;;;;;;;35.90;47.20;;;;;;5058516;28;19922;-83
2023/07/05 10:25:00;;;;;;;;;;;37.00;43.90;;;;;;5065710;28;19912;-82
2023/07/05 10:27:28;;;;;;;;;;;38.00;43.10;;;;;;5065273;28;19924;-83
2023/07/05 10:30:13;;;;;;;;;;;38.10;42.80;;;;;;5064964;28;19935;-84
2023/07/05 10:32:41;;;;;;;;;;;37.10;41.90;;;;;;5059992;28;20445;-84
2023/07/05 10:35:16;;;;;;;;;;;35.20;45.10;;;;;;5061565;28;20277;-83
2023/07/05 10:37:42;;;;;;;;;;;33.70;45.80;;;;;;5069364;28;20125;-81
2023/07/05 10:40:10;;;;;;;;;;;31.70;48.50;;;;;;5068355;28;20423;-81
2023/07/05 10:42:38;;;;;;;;;;;29.40;50.40;;;;;;5063410;28;20003;-80
2023/07/05 10:45:04;;;;;;;;;;;27.60;55.80;;;;;;5058133;28;19913;-81
2023/07/05 10:47:31;;;;;;;;;;;27.50;58.60;;;;;;5076382;28;19916;-84
2023/07/05 10:50:05;;;;;;;;;;;27.80;56.60;;;;;;5063475;28;19920;-83
2023/07/05 10:52:32;;;;;;;;;;;26.00;58.90;;;;;;5063803;28;19923;-83
2023/07/05 10:54:58;;;;;;;;;;;25.40;58.40;;;;;;5063692;28;19917;-83
2023/07/05 10:57:27;;;;;;;;;;;25.90;59.70;;;;;;5062651;28;19916;-84
2023/07/05 11:00:09;;;;;;;;;;;26.30;60.30;;;;;;5063589;28;19916;-83
2023/07/05 11:02:41;;;;;;;;;;;26.60;58.80;;;;;;5063137;28;19912;-84
2023/07/05 11:05:16;;;;;;;;;;;26.40;58.20;;;;;;5063239;28;19912;-82
2023/07/05 11:07:42;;;;;;;;;;;26.10;59.80;;;;;;5063929;28;19924;-80
2023/07/05 11:10:13;;;;;;;;;;;25.70;60.20;;;;;;5064117;28;19916;-82
2023/07/05 11:12:40;;;;;;;;;;;25.50;60.00;;;;;;5049223;28;20673;-80
2023/07/05 11:15:08;;;;;;;;;;;25.50;61.10;;;;;;5059704;28;19955;-81
2023/07/05 11:17:35;;;;;;;;;;;26.30;61.10;;;;;;5060821;28;19920;-79
2023/07/05 11:20:01;;;;;;;;;;;26.90;59.50;;;;;;5062148;28;19924;-83
2023/07/05 11:22:36;;;;;;;;;;;26.70;56.90;;;;;;5052405;28;19912;-82
2023/07/05 11:25:02;;;;;;;;;;;27.20;58.20;;;;;;5054246;28;19939;-82
2023/07/05 11:27:30;;;;;;;;;;;27.50;57.60;;;;;;5062372;28;20705;-83
2023/07/05 11:29:58;;;;;;;;;;;28.30;58.50;;;;;;5062667;28;19973;-79
2023/07/05 11:32:46;;;;;;;;;;;27.90;57.30;;;;;;5058150;28;19936;-82
2023/07/05 11:35:32;;;;;;;;;;;28.60;56.20;;;;;;5048116;28;19995;-83
2023/07/05 11:37:58;;;;;;;;;;;28.50;56.30;;;;;;5055885;28;19924;-83
2023/07/05 11:40:52;;;;;;;;;;;27.50;55.20;;;;;;5060962;28;20431;-81
2023/07/05 11:43:25;;;;;;;;;;;27.00;58.20;;;;;;5043907;28;19920;-83
2023/07/05 11:45:51;;;;;;;;;;;26.20;58.50;;;;;;5046230;28;19912;-83
2023/07/05 11:48:35;;;;;;;;;;;26.00;58.50;;;;;;5053189;28;19916;-79
2023/07/05 11:51:00;;;;;;;;;;;26.00;58.10;;;;;;5048414;28;19921;-83
2023/07/05 11:53:29;;;;;;;;;;;25.90;61.30;;;;;;5055617;28;19985;-83
2023/07/05 11:55:54;;;;;;;;;;;25.70;62.30;;;;;;5048962;28;19920;-84
2023/07/05 11:58:24;;;;;;;;;;;25.40;62.20;;;;;;5036101;28;19944;-83
2023/07/05 12:01:01;;;;;;;;;;;25.70;59.60;;;;;;5042753;28;19948;-84
2023/07/05 12:03:29;;;;;;;;;;;25.90;62.20;;;;;;5059822;28;19923;-79
2023/07/05 12:05:58;;;;;;;;;;;25.90;61.70;;;;;;5049963;28;19913;-81
2023/07/05 12:08:30;;;;;;;;;;;25.60;61.20;;;;;;5057262;28;20384;-83
2023/07/05 12:11:00;;;;;;;;;;;25.30;61.60;;;;;;5056204;28;19986;-83
2023/07/05 12:13:29;;;;;;;;;;;25.30;61.80;;;;;;5058728;28;20016;-83
2023/07/05 12:15:55;;;;;;;;;;;25.00;61.70;;;;;;5054216;28;19920;-83
2023/07/05 12:18:21;;;;;;;;;;;25.00;62.20;;;;;;5061132;28;19920;-81
2023/07/05 12:20:48;;;;;;;;;;;24.90;61.10;;;;;;5060304;28;20042;-80
2023/07/05 12:23:14;;;;;;;;;;;25.10;62.70;;;;;;5043872;28;19912;-82
2023/07/05 12:25:41;;;;;;;;;;;25.30;62.80;;;;;;5061455;28;19917;-84
2023/07/05 12:28:15;;;;;;;;;;;25.60;62.70;;;;;;5062715;28;19916;-81
2023/07/05 12:30:41;;;;;;;;;;;25.80;61.60;;;;;;5056581;28;20339;-83
2023/07/05 12:33:19;;;;;;;;;;;26.60;61.70;;;;;;5062772;28;19916;-81
2023/07/05 12:35:44;;;;;;;;;;;26.70;61.00;;;;;;5060594;28;20406;-83
2023/07/05 12:38:16;;;;;;;;;;;26.20;61.00;;;;;;5063167;28;19917;-84
2023/07/05 12:40:41;;;;;;;;;;;25.70;62.50;;;;;;5062341;28;20035;-82
2023/07/05 12:43:08;;;;;;;;;;;25.30;63.20;;;;;;5084525;28;20430;-83
2023/07/05 12:45:40;;;;;;;;;;;24.40;68.50;;;;;;5068456;28;19919;-82
2023/07/05 12:48:13;;;;;;;;;;;23.80;69.40;;;;;;5044139;28;19917;-83
2023/07/05 12:50:39;;;;;;;;;;;23.60;72.50;;;;;;5047953;28;19963;-83
2023/07/05 12:53:06;;;;;;;;;;;23.90;72.30;;;;;;5046010;28;19964;-83
2023/07/05 12:55:34;;;;;;;;;;;24.40;70.60;;;;;;5051398;28;19912;-81
2023/07/05 12:58:00;;;;;;;;;;;24.90;70.00;;;;;;5032759;28;19974;-83
2023/07/05 13:00:25;;;;;;;;;;;24.70;70.30;;;;;;5062232;28;20554;-83
2023/07/05 13:02:53;;;;;;;;;;;24.80;70.10;;;;;;5055762;28;19913;-83
2023/07/05 13:05:18;;;;;;;;;;;25.20;69.70;;;;;;5060687;28;19912;-81
2023/07/05 13:07:45;;;;;;;;;;;24.90;68.50;;;;;;5063405;28;20283;-84
2023/07/05 13:10:11;;;;;;;;;;;25.00;67.90;;;;;;5062998;28;19916;-83
2023/07/05 13:12:52;;;;;;;;;;;24.90;66.00;;;;;;5043486;28;19920;-82
2023/07/05 13:15:17;;;;;;;;;;;24.90;67.70;;;;;;5056451;28;20028;-84
2023/07/05 13:17:43;;;;;;;;;;;24.90;68.70;;;;;;5043699;28;20007;-81
2023/07/05 13:20:19;;;;;;;;;;;25.10;69.40;;;;;;5067660;28;19919;-82
2023/07/05 13:22:49;;;;;;;;;;;25.20;67.50;;;;;;5056836;28;20690;-83
2023/07/05 13:25:27;;;;;;;;;;;25.10;67.40;;;;;;5061873;28;19912;-83
2023/07/05 13:27:54;;;;;;;;;;;25.40;67.60;;;;;;5060318;28;19916;-83
2023/07/05 13:30:21;;;;;;;;;;;25.40;68.20;;;;;;5065101;28;19928;-83
2023/07/05 13:32:50;;;;;;;;;;;25.10;67.20;;;;;;5056497;28;19919;-81
2023/07/05 13:35:15;;;;;;;;;;;25.00;66.90;;;;;;5059742;28;19919;-83
2023/07/05 13:37:41;;;;;;;;;;;25.00;66.90;;;;;;5054902;28;19917;-83
2023/07/05 13:40:10;;;;;;;;;;;25.20;66.70;;;;;;5062556;28;20031;-81
2023/07/05 13:42:37;;;;;;;;;;;25.20;67.60;;;;;;5031450;28;19939;-82
2023/07/05 13:45:03;;;;;;;;;;;25.50;67.70;;;;;;5062521;28;19920;-82
2023/07/05 13:47:29;;;;;;;;;;;25.40;66.50;;;;;;5050384;28;19916;-82
2023/07/05 13:49:54;;;;;;;;;;;25.80;66.70;;;;;;5053310;28;19977;-81
2023/07/05 13:52:20;;;;;;;;;;;25.70;64.90;;;;;;5062176;28;19912;-84
2023/07/05 13:54:47;;;;;;;;;;;25.60;64.90;;;;;;5062025;28;19912;-81
2023/07/05 13:57:15;;;;;;;;;;;25.30;64.10;;;;;;5063008;28;19920;-82
2023/07/05 13:59:40;;;;;;;;;;;24.60;67.00;;;;;;5053940;28;20402;-83
2023/07/05 14:02:22;;;;;;;;;;;24.70;65.20;;;;;;5060884;28;19912;-82
2023/07/05 14:04:48;;;;;;;;;;;24.90;66.70;;;;;;5056845;28;19938;-82
2023/07/05 14:07:13;;;;;;;;;;;25.00;64.90;;;;;;5065610;28;20348;-83
2023/07/05 14:09:40;;;;;;;;;;;24.80;66.20;;;;;;5065269;28;19981;-83
2023/07/05 14:12:09;;;;;;;;;;;24.80;65.50;;;;;;5064199;28;19916;-83
2023/07/05 14:14:35;;;;;;;;;;;24.80;66.20;;;;;;5061054;28;19952;-82
2023/07/05 14:17:00;;;;;;;;;;;25.10;65.40;;;;;;5064316;28;20023;-84
2023/07/05 14:19:26;;;;;;;;;;;25.50;65.00;;;;;;5060072;28;19979;-82
2023/07/05 14:21:52;;;;;;;;;;;25.40;64.40;;;;;;5058364;28;19983;-81
2023/07/05 14:24:18;;;;;;;;;;;24.70;66.00;;;;;;5065171;28;19923;-83